Hier das METAR für die 16 wichtigsten Deutschen Flughäfen.
(dauert ein wenig.... ich muss laden.....)

ODER
METAR nach ICAO Code suchen

Berlin - Schönefeld

EDDB

METAR
EDDB 222020Z 06005KT CAVOK 20/16 Q1021 NOSIG
EDDBMETAR lang
Berlin-Schoenefeld, Germany (EDDB) 52-23N 013-31E 50M
Jul 22, 2019 - 04:20 PM EDT / 2019.07.22 2020 UTC
Wind: from the ENE (060 degrees) at 6 MPH (5 KT):0
Visibility: greater than 7 mile(s):0
Temperature: 68 F (20 C)
Dew Point: 60 F (16 C)
Relative Humidity: 77%
Pressure (altimeter): 30.15 in. Hg (1021 hPa)
ob: EDDB 222020Z 06005KT CAVOK 20/16 Q1021 NOSIG
cycle: 20

Dresden

EDDC

METAR
EDDC 222020Z 34002KT CAVOK 23/12 Q1022
EDDCMETAR lang
Dresden-Klotzsche, Germany (EDDC) 51-08N 013-45E 232M
Jul 22, 2019 - 04:20 PM EDT / 2019.07.22 2020 UTC
Wind: from the NNW (340 degrees) at 2 MPH (2 KT):0
Visibility: greater than 7 mile(s):0
Temperature: 73 F (23 C)
Dew Point: 53 F (12 C)
Relative Humidity: 49%
Pressure (altimeter): 30.18 in. Hg (1022 hPa)
ob: EDDC 222020Z 34002KT CAVOK 23/12 Q1022
cycle: 20

Erfurt

EDDE

METAR
EDDE 222020Z 26005KT CAVOK 22/13 Q1023
EDDEMETAR lang
Erfurt-Bindersleben, Germany (EDDE) 50-59N 010-58E 322M
Jul 22, 2019 - 04:20 PM EDT / 2019.07.22 2020 UTC
Wind: from the W (260 degrees) at 6 MPH (5 KT):0
Visibility: greater than 7 mile(s):0
Temperature: 71 F (22 C)
Dew Point: 55 F (13 C)
Relative Humidity: 56%
Pressure (altimeter): 30.21 in. Hg (1023 hPa)
ob: EDDE 222020Z 26005KT CAVOK 22/13 Q1023
cycle: 20

Frankfurt a. Main

EDDF

METAR
EDDF 222020Z 04006KT 010V080 CAVOK 28/12 Q1022 NOSIG
EDDFMETAR lang
Frankfurt / M-Flughafen, Germany (EDDF) 50-03N 008-36E 113M
Jul 22, 2019 - 04:20 PM EDT / 2019.07.22 2020 UTC
Wind: from the NE (040 degrees) at 7 MPH (6 KT) (direction variable):0
Visibility: greater than 7 mile(s):0
Temperature: 82 F (28 C)
Dew Point: 53 F (12 C)
Relative Humidity: 37%
Pressure (altimeter): 30.18 in. Hg (1022 hPa)
ob: EDDF 222020Z 04006KT 010V080 CAVOK 28/12 Q1022 NOSIG
cycle: 20

Münster Osnabrück

EDDG

METAR
EDDG 222020Z 25003KT 170V270 CAVOK 23/16 Q1022 NOSIG
EDDGMETAR lang
Muenster / Osnabrueck, Germany (EDDG) 52-08N 007-42E 53M
Jul 22, 2019 - 04:20 PM EDT / 2019.07.22 2020 UTC
Wind: from the WSW (250 degrees) at 3 MPH (3 KT) (direction variable):0
Visibility: greater than 7 mile(s):0
Temperature: 73 F (23 C)
Dew Point: 60 F (16 C)
Relative Humidity: 64%
Pressure (altimeter): 30.18 in. Hg (1022 hPa)
ob: EDDG 222020Z 25003KT 170V270 CAVOK 23/16 Q1022 NOSIG
cycle: 20

Hamburg

EDDH

METAR
EDDH 222020Z 30005KT 9999 SCT029 19/16 Q1021 NOSIG
EDDHMETAR lang
Hamburg-Fuhlsbuettel, Germany (EDDH) 53-38N 010-00E 15M
Jul 22, 2019 - 04:20 PM EDT / 2019.07.22 2020 UTC
Wind: from the WNW (300 degrees) at 6 MPH (5 KT):0
Visibility: greater than 7 mile(s):0
Sky conditions: partly cloudy
Temperature: 66 F (19 C)
Dew Point: 60 F (16 C)
Relative Humidity: 82%
Pressure (altimeter): 30.15 in. Hg (1021 hPa)
ob: EDDH 222020Z 30005KT 9999 SCT029 19/16 Q1021 NOSIG
cycle: 20

Köln - Bonn

EDDK

METAR
EDDK 222020Z 06002KT CAVOK 22/15 Q1022 NOSIG
EDDKMETAR lang
Koeln / Bonn, Germany (EDDK) 50-52N 007-10E 100M
Jul 22, 2019 - 04:20 PM EDT / 2019.07.22 2020 UTC
Wind: from the ENE (060 degrees) at 2 MPH (2 KT):0
Visibility: greater than 7 mile(s):0
Temperature: 71 F (22 C)
Dew Point: 59 F (15 C)
Relative Humidity: 64%
Pressure (altimeter): 30.18 in. Hg (1022 hPa)
ob: EDDK 222020Z 06002KT CAVOK 22/15 Q1022 NOSIG
cycle: 20

Düsseldorf

EDDL

METAR
EDDL 222020Z 36001KT CAVOK 22/16 Q1022 NOSIG
EDDLMETAR lang
Duesseldorf, Germany (EDDL) 51-18N 006-46E 41M
Jul 22, 2019 - 04:20 PM EDT / 2019.07.22 2020 UTC
Wind: from the N (360 degrees) at 1 MPH (1 KT):0
Visibility: greater than 7 mile(s):0
Temperature: 71 F (22 C)
Dew Point: 60 F (16 C)
Relative Humidity: 68%
Pressure (altimeter): 30.18 in. Hg (1022 hPa)
ob: EDDL 222020Z 36001KT CAVOK 22/16 Q1022 NOSIG
cycle: 20

München

EDDM

METAR
EDDM 222020Z 32003KT CAVOK 23/14 Q1024 NOSIG
EDDMMETAR lang
Munchen, Germany (EDDM) 48-21N 011-47E
Jul 22, 2019 - 04:20 PM EDT / 2019.07.22 2020 UTC
Wind: from the NW (320 degrees) at 3 MPH (3 KT):0
Visibility: greater than 7 mile(s):0
Temperature: 73 F (23 C)
Dew Point: 57 F (14 C)
Relative Humidity: 56%
Pressure (altimeter): 30.24 in. Hg (1024 hPa)
ob: EDDM 222020Z 32003KT CAVOK 23/14 Q1024 NOSIG
cycle: 20

Nürnberg

EDDN

METAR
EDDN 222020Z VRB02KT CAVOK 21/11 Q1023
EDDNMETAR lang
Nuernberg, Germany (EDDN) 49-30N 011-03E 318M
Jul 22, 2019 - 04:20 PM EDT / 2019.07.22 2020 UTC
Wind: Variable at 2 MPH (2 KT):0
Visibility: greater than 7 mile(s):0
Temperature: 69 F (21 C)
Dew Point: 51 F (11 C)
Relative Humidity: 52%
Pressure (altimeter): 30.21 in. Hg (1023 hPa)
ob: EDDN 222020Z VRB02KT CAVOK 21/11 Q1023
cycle: 20

Leipzig - Halle

EDDP

METAR
EDDP 222020Z 34004KT CAVOK 23/13 Q1022 NOSIG
EDDPMETAR lang
Leipzig-Schkeuditz, Germany (EDDP) 51-25N 012-14E 149M
Jul 22, 2019 - 04:20 PM EDT / 2019.07.22 2020 UTC
Wind: from the NNW (340 degrees) at 5 MPH (4 KT):0
Visibility: greater than 7 mile(s):0
Temperature: 73 F (23 C)
Dew Point: 55 F (13 C)
Relative Humidity: 53%
Pressure (altimeter): 30.18 in. Hg (1022 hPa)
ob: EDDP 222020Z 34004KT CAVOK 23/13 Q1022 NOSIG
cycle: 20

Saarbrücken

EDDR

METAR
EDDR 222020Z 02003KT CAVOK 21/12 Q1023 NOSIG
EDDRMETAR lang
Saarbruecken / Ensheim, Germany (EDDR) 49-13N 007-07E 320M
Jul 22, 2019 - 04:20 PM EDT / 2019.07.22 2020 UTC
Wind: from the NNE (020 degrees) at 3 MPH (3 KT):0
Visibility: greater than 7 mile(s):0
Temperature: 69 F (21 C)
Dew Point: 53 F (12 C)
Relative Humidity: 56%
Pressure (altimeter): 30.21 in. Hg (1023 hPa)
ob: EDDR 222020Z 02003KT CAVOK 21/12 Q1023 NOSIG
cycle: 20

Stuttgart

EDDS

METAR
EDDS 222020Z VRB01KT CAVOK 22/12 Q1024
EDDSMETAR lang
Stuttgart-Echterdingen, Germany (EDDS) 48-41N 009-13E 391M
Jul 22, 2019 - 04:20 PM EDT / 2019.07.22 2020 UTC
Wind: Variable at 1 MPH (1 KT):0
Visibility: greater than 7 mile(s):0
Temperature: 71 F (22 C)
Dew Point: 53 F (12 C)
Relative Humidity: 53%
Pressure (altimeter): 30.24 in. Hg (1024 hPa)
ob: EDDS 222020Z VRB01KT CAVOK 22/12 Q1024
cycle: 20

Berlin - Tegel

EDDT

METAR
EDDT 222020Z 06003KT 020V130 CAVOK 20/15 Q1021 NOSIG
EDDTMETAR lang
Berlin-Tegel, Germany (EDDT) 52-34N 013-19E 37M
Jul 22, 2019 - 04:20 PM EDT / 2019.07.22 2020 UTC
Wind: from the ENE (060 degrees) at 3 MPH (3 KT) (direction variable):0
Visibility: greater than 7 mile(s):0
Temperature: 68 F (20 C)
Dew Point: 59 F (15 C)
Relative Humidity: 72%
Pressure (altimeter): 30.15 in. Hg (1021 hPa)
ob: EDDT 222020Z 06003KT 020V130 CAVOK 20/15 Q1021 NOSIG
cycle: 20

Hannover

EDDV

METAR
EDDV 222020Z 25003KT CAVOK 22/15 Q1022 NOSIG
EDDVMETAR lang
Hannover, Germany (EDDV) 52-28N 009-41E 59M
Jul 22, 2019 - 04:20 PM EDT / 2019.07.22 2020 UTC
Wind: from the WSW (250 degrees) at 3 MPH (3 KT):0
Visibility: greater than 7 mile(s):0
Temperature: 71 F (22 C)
Dew Point: 59 F (15 C)
Relative Humidity: 64%
Pressure (altimeter): 30.18 in. Hg (1022 hPa)
ob: EDDV 222020Z 25003KT CAVOK 22/15 Q1022 NOSIG
cycle: 20

Bremen

EDDW

METAR
EDDW 222020Z 31005KT 9999 FEW045 23/17 Q1021 NOSIG
EDDWMETAR lang
Bremen, Germany (EDDW) 53-03N 008-48E 5M
Jul 22, 2019 - 04:20 PM EDT / 2019.07.22 2020 UTC
Wind: from the NW (310 degrees) at 6 MPH (5 KT):0
Visibility: greater than 7 mile(s):0
Sky conditions: mostly clear
Temperature: 73 F (23 C)
Dew Point: 62 F (17 C)
Relative Humidity: 68%
Pressure (altimeter): 30.15 in. Hg (1021 hPa)
ob: EDDW 222020Z 31005KT 9999 FEW045 23/17 Q1021 NOSIG
cycle: 20